Airfield :
LOGIN :

Register | Disclaimer

   EN    FR    IT 

 










Legend :    VFR   Marginal VFR   IFR   Intensive IFR   Very Intensive IFR
Visi :
Ceiling :
>= 8 km
>= 3000ft
5 to 8 km
1000 to 3000 ft
1500m to 5 km
500 to 1000 ft
800 to 1500m
200 to 500 ft
< 800m
< 200 ft
Symbols :   Thunderstorms  Fog  Heavy snow  Heavy precipitations  Wind > 20 kt
SIGMETs :     Misc.  Thunderstorms  Icing  Turbulence  Mountain Waves  Volcanic Ashes






- Airport Elevation : 120 ft
- IATA code : MME


EGNV - Durham Tees valley

CURRENT METAR :
  • 231020Z 32004KT 9999 VCSH FEW009 BKN022 15/13 Q1005

EXPIRED METARs :
  • 230950Z 29006KT 9000 VCSH SCT009 BKN015 14/13 Q1005
  • 230920Z 29007KT 8000 VCSH SCT008 BKN015 13/12 Q1005
  • 230850Z 30007KT 7000 -RA SCT007 BKN013 13/12 Q1004
  • 230820Z 30007KT 6000 -RA SCT007 BKN013 13/12 Q1004
  • 230750Z 30007KT 6000 -RA SCT007 BKN014 13/12 Q1004
  • 230720Z 30008KT 5000 -RA BR SCT007 BKN010 13/12 Q1003
  • 230650Z 29009KT 5000 -RA BR FEW008 BKN010 13/12 Q1002
  • 230620Z 28008KT 2000 -RA BR BKN010 13/12 Q1002
  • 230550Z 24008KT 3000 -RA BR BKN010 13/12 Q1002

TAF TAF EGNV
Valid from the 23 at 09:00 until the 23 at 18:00 UTC


230805Z 2309/2318 32007KT 9999 BKN020
TEMPO 2309/2318 6000 RA -RADZ BKN010
PROB30
TEMPO 2309/2318 2000 RADZ BKN005
ATIS : +44 9012 018 111



MET'MAP, your aeronautical weather chart ! - Copyright ORBIFLY December 2007 - Disclaimer

ORBIFLY MET'MAP TEAM :

Programming & Development : Alexandra Zaïnal
Original concept : Baudouin d'Aumeries
Technical & hardware support : Manuel Goepfert
Assistance : Marc-Olivier Méhu




SOURCES & CREDITS :

   NOAA